sensor_id;sensor_type;location;lat;lon;timestamp;pressure;altitude;pressure_sealevel;temperature;humidity
15670;BME280;18524;45.190;5.732;2023-04-27T00:04:28;99125.22;;;16.64;58.13
15670;BME280;18524;45.190;5.732;2023-04-27T00:09:18;99124.88;;;16.58;58.47
15670;BME280;18524;45.190;5.732;2023-04-27T00:14:08;99117.59;;;16.61;58.01
15670;BME280;18524;45.190;5.732;2023-04-27T00:18:59;99115.44;;;16.56;57.72
15670;BME280;18524;45.190;5.732;2023-04-27T00:23:49;99115.44;;;16.48;57.03
15670;BME280;18524;45.190;5.732;2023-04-27T00:28:40;99120.38;;;16.43;57.10
15670;BME280;18524;45.190;5.732;2023-04-27T00:33:30;99120.50;;;16.33;56.65
15670;BME280;18524;45.190;5.732;2023-04-27T00:38:21;99098.78;;;16.13;56.92
15670;BME280;18524;45.190;5.732;2023-04-27T00:43:11;99107.22;;;16.09;57.21
15670;BME280;18524;45.190;5.732;2023-04-27T00:48:02;99097.53;;;15.91;59.12
15670;BME280;18524;45.190;5.732;2023-04-27T00:52:52;99093.22;;;15.90;59.23
15670;BME280;18524;45.190;5.732;2023-04-27T00:57:43;99107.06;;;15.76;60.72
15670;BME280;18524;45.190;5.732;2023-04-27T01:02:33;99096.13;;;15.71;61.68
15670;BME280;18524;45.190;5.732;2023-04-27T01:07:25;99095.44;;;15.69;61.72
15670;BME280;18524;45.190;5.732;2023-04-27T01:12:15;99105.34;;;15.67;61.28
15670;BME280;18524;45.190;5.732;2023-04-27T01:17:06;99102.09;;;15.55;61.60
15670;BME280;18524;45.190;5.732;2023-04-27T01:21:56;99104.16;;;15.61;61.67
15670;BME280;18524;45.190;5.732;2023-04-27T01:26:46;99115.94;;;15.67;61.38
15670;BME280;18524;45.190;5.732;2023-04-27T01:31:37;99108.47;;;15.62;61.85
15670;BME280;18524;45.190;5.732;2023-04-27T01:36:28;99108.75;;;15.59;62.34
15670;BME280;18524;45.190;5.732;2023-04-27T01:41:18;99110.41;;;15.60;62.45
15670;BME280;18524;45.190;5.732;2023-04-27T01:46:11;99110.84;;;15.56;61.98
15670;BME280;18524;45.190;5.732;2023-04-27T01:51:02;99122.06;;;15.50;62.32
15670;BME280;18524;45.190;5.732;2023-04-27T01:55:53;99120.34;;;15.41;63.06
15670;BME280;18524;45.190;5.732;2023-04-27T02:00:43;99126.63;;;15.22;65.26
15670;BME280;18524;45.190;5.732;2023-04-27T02:05:33;99126.38;;;15.07;66.34
15670;BME280;18524;45.190;5.732;2023-04-27T02:10:24;99133.63;;;15.05;67.60
15670;BME280;18524;45.190;5.732;2023-04-27T02:15:14;99140.09;;;15.11;68.23
15670;BME280;18524;45.190;5.732;2023-04-27T02:20:05;99148.09;;;14.83;69.54
15670;BME280;18524;45.190;5.732;2023-04-27T02:24:56;99152.66;;;14.91;70.02
15670;BME280;18524;45.190;5.732;2023-04-27T02:29:46;99160.41;;;14.92;70.22
15670;BME280;18524;45.190;5.732;2023-04-27T02:34:36;99161.38;;;14.74;71.00
15670;BME280;18524;45.190;5.732;2023-04-27T02:39:27;99157.97;;;14.63;71.94
15670;BME280;18524;45.190;5.732;2023-04-27T02:44:17;99160.00;;;14.69;72.03
15670;BME280;18524;45.190;5.732;2023-04-27T02:49:07;99157.38;;;14.69;72.09
15670;BME280;18524;45.190;5.732;2023-04-27T02:53:58;99163.47;;;14.52;73.41
15670;BME280;18524;45.190;5.732;2023-04-27T02:58:48;99160.28;;;14.39;74.40
15670;BME280;18524;45.190;5.732;2023-04-27T03:03:38;99165.03;;;14.35;74.24
15670;BME280;18524;45.190;5.732;2023-04-27T03:08:29;99165.25;;;14.24;75.15
15670;BME280;18524;45.190;5.732;2023-04-27T03:13:20;99163.03;;;14.20;75.44
15670;BME280;18524;45.190;5.732;2023-04-27T03:18:11;99166.13;;;14.05;75.90
15670;BME280;18524;45.190;5.732;2023-04-27T03:23:01;99152.66;;;14.08;76.07
15670;BME280;18524;45.190;5.732;2023-04-27T03:27:52;99166.97;;;14.06;76.67
15670;BME280;18524;45.190;5.732;2023-04-27T03:32:42;99169.47;;;14.07;76.75
15670;BME280;18524;45.190;5.732;2023-04-27T03:37:33;99168.25;;;14.02;76.88
15670;BME280;18524;45.190;5.732;2023-04-27T03:42:23;99149.63;;;14.13;77.17
15670;BME280;18524;45.190;5.732;2023-04-27T03:47:13;99159.34;;;14.13;76.46
15670;BME280;18524;45.190;5.732;2023-04-27T03:52:04;99156.91;;;13.92;77.78
15670;BME280;18524;45.190;5.732;2023-04-27T03:56:54;99156.50;;;13.87;78.90
15670;BME280;18524;45.190;5.732;2023-04-27T04:01:45;99160.16;;;13.76;79.50
15670;BME280;18524;45.190;5.732;2023-04-27T04:06:35;99161.09;;;13.75;77.97
15670;BME280;18524;45.190;5.732;2023-04-27T04:11:25;99162.38;;;13.71;79.11
15670;BME280;18524;45.190;5.732;2023-04-27T04:16:16;99169.22;;;13.54;79.33
15670;BME280;18524;45.190;5.732;2023-04-27T04:21:08;99180.19;;;13.40;79.47
15670;BME280;18524;45.190;5.732;2023-04-27T04:25:58;99182.84;;;13.40;79.62
15670;BME280;18524;45.190;5.732;2023-04-27T04:30:51;99181.72;;;13.42;79.78
15670;BME280;18524;45.190;5.732;2023-04-27T04:35:41;99177.44;;;13.41;79.85
15670;BME280;18524;45.190;5.732;2023-04-27T04:40:32;99190.16;;;13.36;81.54
15670;BME280;18524;45.190;5.732;2023-04-27T04:45:22;99191.00;;;13.27;82.41
15670;BME280;18524;45.190;5.732;2023-04-27T04:50:12;99194.88;;;13.23;82.97
15670;BME280;18524;45.190;5.732;2023-04-27T04:55:03;99200.00;;;13.15;83.86
15670;BME280;18524;45.190;5.732;2023-04-27T04:59:54;99206.53;;;13.21;83.33
15670;BME280;18524;45.190;5.732;2023-04-27T05:04:44;99214.56;;;13.29;83.09
15670;BME280;18524;45.190;5.732;2023-04-27T05:09:35;99204.59;;;13.32;83.42
15670;BME280;18524;45.190;5.732;2023-04-27T05:14:25;99208.44;;;13.67;80.75
15670;BME280;18524;45.190;5.732;2023-04-27T05:19:16;99206.34;;;13.70;78.57
15670;BME280;18524;45.190;5.732;2023-04-27T05:24:10;99217.44;;;13.64;79.10
15670;BME280;18524;45.190;5.732;2023-04-27T05:29:01;99222.53;;;13.95;78.41
15670;BME280;18524;45.190;5.732;2023-04-27T05:33:52;99227.66;;;14.43;75.15
15670;BME280;18524;45.190;5.732;2023-04-27T05:38:42;99211.13;;;14.96;71.61
15670;BME280;18524;45.190;5.732;2023-04-27T05:43:33;99218.28;;;15.21;71.27
15670;BME280;18524;45.190;5.732;2023-04-27T05:48:24;99218.31;;;15.83;69.06
15670;BME280;18524;45.190;5.732;2023-04-27T05:53:14;99224.25;;;16.03;67.29
15670;BME280;18524;45.190;5.732;2023-04-27T05:58:06;99234.13;;;16.61;65.11
15670;BME280;18524;45.190;5.732;2023-04-27T06:02:56;99233.63;;;17.07;61.62
15670;BME280;18524;45.190;5.732;2023-04-27T06:07:47;99233.50;;;17.33;58.42
15670;BME280;18524;45.190;5.732;2023-04-27T06:12:37;99233.38;;;17.67;57.31
15670;BME280;18524;45.190;5.732;2023-04-27T06:17:27;99245.78;;;17.83;55.80
15670;BME280;18524;45.190;5.732;2023-04-27T06:22:18;99241.56;;;18.37;54.46
15670;BME280;18524;45.190;5.732;2023-04-27T06:27:08;99253.09;;;18.69;53.12
15670;BME280;18524;45.190;5.732;2023-04-27T06:31:58;99248.16;;;18.41;52.76
15670;BME280;18524;45.190;5.732;2023-04-27T06:36:49;99237.34;;;18.90;51.65
15670;BME280;18524;45.190;5.732;2023-04-27T06:41:40;99244.22;;;18.85;51.02
15670;BME280;18524;45.190;5.732;2023-04-27T06:46:30;99241.22;;;18.40;52.42
15670;BME280;18524;45.190;5.732;2023-04-27T06:51:20;99240.81;;;18.52;51.00
15670;BME280;18524;45.190;5.732;2023-04-27T06:56:11;99242.03;;;18.41;51.78
15670;BME280;18524;45.190;5.732;2023-04-27T07:01:01;99236.66;;;18.65;52.17
15670;BME280;18524;45.190;5.732;2023-04-27T07:05:53;99226.34;;;18.70;52.54
15670;BME280;18524;45.190;5.732;2023-04-27T07:10:43;99228.38;;;18.52;53.25
15670;BME280;18524;45.190;5.732;2023-04-27T07:15:33;99229.72;;;18.48;52.39
15670;BME280;18524;45.190;5.732;2023-04-27T07:20:24;99212.13;;;18.86;51.88
15670;BME280;18524;45.190;5.732;2023-04-27T07:25:15;99203.59;;;19.67;49.11
15670;BME280;18524;45.190;5.732;2023-04-27T07:30:06;99214.13;;;19.61;48.52
15670;BME280;18524;45.190;5.732;2023-04-27T07:34:58;99207.69;;;19.55;48.30
15670;BME280;18524;45.190;5.732;2023-04-27T07:39:49;99207.25;;;19.66;48.24
15670;BME280;18524;45.190;5.732;2023-04-27T07:44:41;99202.53;;;20.06;47.58
15670;BME280;18524;45.190;5.732;2023-04-27T07:49:31;99190.91;;;20.51;45.81
15670;BME280;18524;45.190;5.732;2023-04-27T07:54:22;99189.28;;;21.08;44.20
15670;BME280;18524;45.190;5.732;2023-04-27T07:59:12;99187.81;;;20.48;44.74
15670;BME280;18524;45.190;5.732;2023-04-27T08:04:04;99171.53;;;21.36;43.81
15670;BME280;18524;45.190;5.732;2023-04-27T08:08:54;99163.53;;;21.36;41.13
15670;BME280;18524;45.190;5.732;2023-04-27T08:13:47;99170.00;;;21.76;39.30
15670;BME280;18524;45.190;5.732;2023-04-27T08:18:37;99171.13;;;22.17;39.22
15670;BME280;18524;45.190;5.732;2023-04-27T08:23:28;99167.09;;;22.34;38.49
15670;BME280;18524;45.190;5.732;2023-04-27T08:28:18;99156.72;;;22.18;38.38
15670;BME280;18524;45.190;5.732;2023-04-27T08:33:09;99154.19;;;22.44;37.60
15670;BME280;18524;45.190;5.732;2023-04-27T08:37:59;99139.81;;;23.06;36.56
15670;BME280;18524;45.190;5.732;2023-04-27T08:42:55;99133.84;;;23.24;35.75
15670;BME280;18524;45.190;5.732;2023-04-27T08:47:45;99138.75;;;23.40;34.60
15670;BME280;18524;45.190;5.732;2023-04-27T08:52:36;99134.41;;;22.86;35.50
15670;BME280;18524;45.190;5.732;2023-04-27T08:57:26;99135.28;;;23.33;35.39
15670;BME280;18524;45.190;5.732;2023-04-27T09:02:18;99124.38;;;23.48;34.40
15670;BME280;18524;45.190;5.732;2023-04-27T09:07:16;99121.47;;;23.29;34.45
15670;BME280;18524;45.190;5.732;2023-04-27T09:12:19;99128.91;;;23.54;34.57
15670;BME280;18524;45.190;5.732;2023-04-27T09:17:10;99129.63;;;24.07;33.76
15670;BME280;18524;45.190;5.732;2023-04-27T09:22:09;99128.25;;;24.49;33.36
15670;BME280;18524;45.190;5.732;2023-04-27T09:27:06;99123.78;;;24.37;32.81
15670;BME280;18524;45.190;5.732;2023-04-27T09:31:57;99123.13;;;24.48;32.71
15670;BME280;18524;45.190;5.732;2023-04-27T09:36:48;99127.66;;;24.85;33.11
15670;BME280;18524;45.190;5.732;2023-04-27T09:41:40;99123.69;;;25.01;31.66
15670;BME280;18524;45.190;5.732;2023-04-27T09:46:32;99130.13;;;24.87;31.95
15670;BME280;18524;45.190;5.732;2023-04-27T09:51:22;99118.53;;;25.24;30.95
15670;BME280;18524;45.190;5.732;2023-04-27T09:56:23;99124.44;;;25.08;31.16
15670;BME280;18524;45.190;5.732;2023-04-27T10:01:31;99120.38;;;25.31;31.70
15670;BME280;18524;45.190;5.732;2023-04-27T10:11:40;99099.13;;;25.91;30.81
15670;BME280;18524;45.190;5.732;2023-04-27T10:16:42;99094.53;;;25.54;30.83
15670;BME280;18524;45.190;5.732;2023-04-27T10:21:33;99092.63;;;25.12;30.57
15670;BME280;18524;45.190;5.732;2023-04-27T10:26:25;99094.16;;;25.01;30.92
15670;BME280;18524;45.190;5.732;2023-04-27T10:31:16;99094.81;;;25.46;29.78
15670;BME280;18524;45.190;5.732;2023-04-27T10:36:13;99079.59;;;25.40;29.96
15670;BME280;18524;45.190;5.732;2023-04-27T10:41:03;99075.47;;;25.38;29.61
15670;BME280;18524;45.190;5.732;2023-04-27T10:46:06;99081.47;;;25.58;29.56
15670;BME280;18524;45.190;5.732;2023-04-27T10:50:57;99069.31;;;25.55;29.18
15670;BME280;18524;45.190;5.732;2023-04-27T10:55:54;99067.88;;;25.53;28.09
15670;BME280;18524;45.190;5.732;2023-04-27T11:00:45;99064.66;;;25.88;29.35
15670;BME280;18524;45.190;5.732;2023-04-27T11:05:35;99056.56;;;26.24;28.67
15670;BME280;18524;45.190;5.732;2023-04-27T11:10:26;99053.31;;;26.52;29.20
15670;BME280;18524;45.190;5.732;2023-04-27T11:15:16;99044.28;;;26.88;27.79
15670;BME280;18524;45.190;5.732;2023-04-27T11:20:07;99040.34;;;27.02;28.62
15670;BME280;18524;45.190;5.732;2023-04-27T11:24:58;99033.94;;;27.38;28.56
15670;BME280;18524;45.190;5.732;2023-04-27T11:29:48;99031.34;;;27.55;27.61
15670;BME280;18524;45.190;5.732;2023-04-27T11:34:39;99027.22;;;27.88;27.69
15670;BME280;18524;45.190;5.732;2023-04-27T11:39:36;99018.53;;;27.86;27.67
15670;BME280;18524;45.190;5.732;2023-04-27T11:44:26;99026.13;;;28.00;27.15
15670;BME280;18524;45.190;5.732;2023-04-27T11:49:17;99023.28;;;28.07;28.19
15670;BME280;18524;45.190;5.732;2023-04-27T11:54:08;99023.09;;;27.97;28.42
15670;BME280;18524;45.190;5.732;2023-04-27T11:58:59;99015.25;;;28.24;28.81
15670;BME280;18524;45.190;5.732;2023-04-27T12:03:51;99009.19;;;27.77;29.28
15670;BME280;18524;45.190;5.732;2023-04-27T12:08:42;99016.25;;;27.66;29.32
15670;BME280;18524;45.190;5.732;2023-04-27T12:13:32;99008.50;;;27.34;29.72
15670;BME280;18524;45.190;5.732;2023-04-27T12:18:23;99005.69;;;27.06;29.73
15670;BME280;18524;45.190;5.732;2023-04-27T12:23:13;99005.00;;;26.99;30.23
15670;BME280;18524;45.190;5.732;2023-04-27T12:28:03;99005.09;;;27.39;29.52
15670;BME280;18524;45.190;5.732;2023-04-27T12:32:55;99010.25;;;27.40;29.26
15670;BME280;18524;45.190;5.732;2023-04-27T12:37:45;99011.44;;;27.45;29.08
15670;BME280;18524;45.190;5.732;2023-04-27T12:42:37;99008.03;;;27.49;29.92
15670;BME280;18524;45.190;5.732;2023-04-27T12:47:27;98999.84;;;27.67;28.46
15670;BME280;18524;45.190;5.732;2023-04-27T12:52:18;99015.97;;;27.91;28.18
15670;BME280;18524;45.190;5.732;2023-04-27T12:57:09;99008.09;;;28.18;27.53
15670;BME280;18524;45.190;5.732;2023-04-27T13:02:00;99000.66;;;28.08;26.67
15670;BME280;18524;45.190;5.732;2023-04-27T13:06:50;99004.75;;;28.11;26.93
15670;BME280;18524;45.190;5.732;2023-04-27T13:11:41;99006.94;;;28.14;26.70
15670;BME280;18524;45.190;5.732;2023-04-27T13:16:31;99002.00;;;28.22;26.63
15670;BME280;18524;45.190;5.732;2023-04-27T13:21:22;98997.97;;;28.37;26.14
15670;BME280;18524;45.190;5.732;2023-04-27T13:26:13;98995.34;;;28.25;26.70
15670;BME280;18524;45.190;5.732;2023-04-27T13:31:04;99000.88;;;28.07;26.65
15670;BME280;18524;45.190;5.732;2023-04-27T13:35:56;98995.91;;;27.87;26.43
15670;BME280;18524;45.190;5.732;2023-04-27T13:40:47;98984.81;;;27.71;26.91
15670;BME280;18524;45.190;5.732;2023-04-27T13:45:37;98987.66;;;27.41;26.80
15670;BME280;18524;45.190;5.732;2023-04-27T13:50:28;98986.03;;;27.29;27.33
15670;BME280;18524;45.190;5.732;2023-04-27T13:55:19;98971.41;;;27.13;28.55
15670;BME280;18524;45.190;5.732;2023-04-27T14:00:10;98973.28;;;27.13;27.81
15670;BME280;18524;45.190;5.732;2023-04-27T14:05:00;98966.59;;;27.03;28.35
15670;BME280;18524;45.190;5.732;2023-04-27T14:09:51;98967.66;;;27.02;27.67
15670;BME280;18524;45.190;5.732;2023-04-27T14:14:41;98958.63;;;27.08;28.33
15670;BME280;18524;45.190;5.732;2023-04-27T14:19:31;98956.53;;;26.99;26.95
15670;BME280;18524;45.190;5.732;2023-04-27T14:24:22;98954.31;;;27.07;27.55
15670;BME280;18524;45.190;5.732;2023-04-27T14:29:13;98951.50;;;27.02;27.29
15670;BME280;18524;45.190;5.732;2023-04-27T14:34:03;98955.47;;;26.88;27.93
15670;BME280;18524;45.190;5.732;2023-04-27T14:38:54;98948.56;;;26.92;28.21
15670;BME280;18524;45.190;5.732;2023-04-27T14:43:44;98957.44;;;26.93;28.06
15670;BME280;18524;45.190;5.732;2023-04-27T14:48:37;98958.59;;;26.62;28.70
15670;BME280;18524;45.190;5.732;2023-04-27T14:53:27;98952.84;;;26.46;28.83
15670;BME280;18524;45.190;5.732;2023-04-27T14:58:18;98950.75;;;26.30;30.14
15670;BME280;18524;45.190;5.732;2023-04-27T15:03:17;98955.09;;;26.31;29.72
15670;BME280;18524;45.190;5.732;2023-04-27T15:08:07;98954.47;;;26.17;30.75
15670;BME280;18524;45.190;5.732;2023-04-27T15:12:59;98946.63;;;26.04;30.80
15670;BME280;18524;45.190;5.732;2023-04-27T15:17:49;98939.81;;;26.02;31.09
15670;BME280;18524;45.190;5.732;2023-04-27T15:22:40;98941.63;;;25.90;32.31
15670;BME280;18524;45.190;5.732;2023-04-27T15:27:30;98943.13;;;25.85;31.48
15670;BME280;18524;45.190;5.732;2023-04-27T15:32:21;98941.50;;;25.84;31.58
15670;BME280;18524;45.190;5.732;2023-04-27T15:37:13;98952.25;;;25.84;32.17
15670;BME280;18524;45.190;5.732;2023-04-27T15:42:04;98945.91;;;25.79;31.89
15670;BME280;18524;45.190;5.732;2023-04-27T15:46:54;98944.59;;;25.70;31.58
15670;BME280;18524;45.190;5.732;2023-04-27T15:51:45;98943.56;;;25.64;31.51
15670;BME280;18524;45.190;5.732;2023-04-27T15:56:35;98940.47;;;25.49;32.71
15670;BME280;18524;45.190;5.732;2023-04-27T16:01:26;98919.16;;;25.36;32.37
15670;BME280;18524;45.190;5.732;2023-04-27T16:06:16;98931.75;;;25.35;32.86
15670;BME280;18524;45.190;5.732;2023-04-27T16:11:06;98938.91;;;25.41;32.96
15670;BME280;18524;45.190;5.732;2023-04-27T16:15:57;98938.63;;;25.31;32.68
15670;BME280;18524;45.190;5.732;2023-04-27T16:20:47;98936.16;;;25.30;33.14
15670;BME280;18524;45.190;5.732;2023-04-27T16:25:37;98938.03;;;25.29;33.06
15670;BME280;18524;45.190;5.732;2023-04-27T16:30:28;98926.59;;;25.15;33.60
15670;BME280;18524;45.190;5.732;2023-04-27T16:35:18;98933.75;;;25.03;33.45
15670;BME280;18524;45.190;5.732;2023-04-27T16:40:09;98931.66;;;25.05;33.63
15670;BME280;18524;45.190;5.732;2023-04-27T16:44:59;98926.88;;;24.82;34.26
15670;BME280;18524;45.190;5.732;2023-04-27T16:49:53;98934.78;;;24.77;33.88
15670;BME280;18524;45.190;5.732;2023-04-27T16:54:43;98939.44;;;24.63;34.42
15670;BME280;18524;45.190;5.732;2023-04-27T16:59:33;98946.31;;;24.53;34.89
15670;BME280;18524;45.190;5.732;2023-04-27T17:04:24;98939.59;;;24.44;34.64
15670;BME280;18524;45.190;5.732;2023-04-27T17:09:14;98938.44;;;24.33;34.91
15670;BME280;18524;45.190;5.732;2023-04-27T17:14:05;98948.19;;;24.21;36.09
15670;BME280;18524;45.190;5.732;2023-04-27T17:18:56;98949.84;;;24.15;36.82
15670;BME280;18524;45.190;5.732;2023-04-27T17:23:46;98950.75;;;24.02;36.82
15670;BME280;18524;45.190;5.732;2023-04-27T17:28:39;98950.84;;;23.89;36.65
15670;BME280;18524;45.190;5.732;2023-04-27T17:33:30;98961.38;;;23.84;37.43
15670;BME280;18524;45.190;5.732;2023-04-27T17:38:20;98951.56;;;23.65;37.81
15670;BME280;18524;45.190;5.732;2023-04-27T17:43:10;98946.00;;;23.53;38.13
15670;BME280;18524;45.190;5.732;2023-04-27T17:48:01;98956.13;;;23.45;38.60
15670;BME280;18524;45.190;5.732;2023-04-27T17:52:52;98954.09;;;23.33;39.13
15670;BME280;18524;45.190;5.732;2023-04-27T17:57:43;98960.91;;;23.23;39.25
15670;BME280;18524;45.190;5.732;2023-04-27T18:02:33;98967.34;;;23.08;39.98
15670;BME280;18524;45.190;5.732;2023-04-27T18:07:24;98980.50;;;22.97;40.62
15670;BME280;18524;45.190;5.732;2023-04-27T18:17:04;98982.94;;;22.65;41.18
15670;BME280;18524;45.190;5.732;2023-04-27T18:21:54;98985.81;;;22.64;42.29
15670;BME280;18524;45.190;5.732;2023-04-27T18:26:45;98988.28;;;22.52;42.54
15670;BME280;18524;45.190;5.732;2023-04-27T18:31:35;98989.94;;;22.40;42.87
15670;BME280;18524;45.190;5.732;2023-04-27T18:36:27;98993.81;;;22.31;42.97
15670;BME280;18524;45.190;5.732;2023-04-27T18:41:17;98998.91;;;22.19;43.37
15670;BME280;18524;45.190;5.732;2023-04-27T18:46:08;99004.84;;;22.08;43.92
15670;BME280;18524;45.190;5.732;2023-04-27T18:50:58;99006.84;;;21.99;44.09
15670;BME280;18524;45.190;5.732;2023-04-27T18:55:48;99016.66;;;21.92;43.85
15670;BME280;18524;45.190;5.732;2023-04-27T19:00:39;99017.84;;;21.83;44.31
15670;BME280;18524;45.190;5.732;2023-04-27T19:05:29;99017.22;;;21.74;45.25
15670;BME280;18524;45.190;5.732;2023-04-27T19:10:20;99020.25;;;21.65;45.80
15670;BME280;18524;45.190;5.732;2023-04-27T19:15:10;99029.41;;;21.56;45.97
15670;BME280;18524;45.190;5.732;2023-04-27T19:20:01;99033.25;;;21.46;46.74
15670;BME280;18524;45.190;5.732;2023-04-27T19:24:52;99044.50;;;21.35;46.99
15670;BME280;18524;45.190;5.732;2023-04-27T19:29:54;99050.38;;;21.24;47.84
15670;BME280;18524;45.190;5.732;2023-04-27T19:34:45;99055.44;;;21.19;48.54
15670;BME280;18524;45.190;5.732;2023-04-27T19:39:36;99065.16;;;21.05;48.57
15670;BME280;18524;45.190;5.732;2023-04-27T19:44:27;99067.97;;;20.97;49.31
15670;BME280;18524;45.190;5.732;2023-04-27T19:49:18;99082.25;;;20.89;50.00
15670;BME280;18524;45.190;5.732;2023-04-27T19:54:08;99084.22;;;20.81;50.80
15670;BME280;18524;45.190;5.732;2023-04-27T19:58:58;99075.91;;;20.69;51.34
15670;BME280;18524;45.190;5.732;2023-04-27T20:03:49;99086.50;;;20.63;51.95
15670;BME280;18524;45.190;5.732;2023-04-27T20:08:42;99095.81;;;20.52;52.09
15670;BME280;18524;45.190;5.732;2023-04-27T20:13:32;99101.91;;;20.46;52.45
15670;BME280;18524;45.190;5.732;2023-04-27T20:18:22;99114.94;;;20.41;52.98
15670;BME280;18524;45.190;5.732;2023-04-27T20:23:14;99107.41;;;20.29;53.77
15670;BME280;18524;45.190;5.732;2023-04-27T20:28:05;99110.56;;;20.18;54.71
15670;BME280;18524;45.190;5.732;2023-04-27T20:32:55;99115.25;;;20.16;56.00
15670;BME280;18524;45.190;5.732;2023-04-27T20:37:45;99128.09;;;20.13;55.57
15670;BME280;18524;45.190;5.732;2023-04-27T20:42:36;99123.50;;;20.07;55.47
15670;BME280;18524;45.190;5.732;2023-04-27T20:47:27;99117.53;;;20.05;55.91
15670;BME280;18524;45.190;5.732;2023-04-27T20:52:17;99115.88;;;20.04;55.88
15670;BME280;18524;45.190;5.732;2023-04-27T20:57:08;99113.03;;;20.05;55.85
15670;BME280;18524;45.190;5.732;2023-04-27T21:02:02;99114.03;;;20.04;55.83
15670;BME280;18524;45.190;5.732;2023-04-27T21:06:54;99122.59;;;19.99;56.01
15670;BME280;18524;45.190;5.732;2023-04-27T21:11:44;99134.06;;;20.00;56.36
15670;BME280;18524;45.190;5.732;2023-04-27T21:16:35;99129.56;;;20.01;56.31
15670;BME280;18524;45.190;5.732;2023-04-27T21:21:25;99134.44;;;19.97;55.80
15670;BME280;18524;45.190;5.732;2023-04-27T21:26:16;99128.38;;;19.88;55.96
15670;BME280;18524;45.190;5.732;2023-04-27T21:31:06;99127.38;;;19.89;55.66
15670;BME280;18524;45.190;5.732;2023-04-27T21:35:57;99127.75;;;19.86;55.38
15670;BME280;18524;45.190;5.732;2023-04-27T21:40:48;99128.75;;;19.85;56.35
15670;BME280;18524;45.190;5.732;2023-04-27T21:45:39;99131.78;;;19.82;56.58
15670;BME280;18524;45.190;5.732;2023-04-27T21:50:29;99132.50;;;19.76;56.98
15670;BME280;18524;45.190;5.732;2023-04-27T21:55:19;99135.81;;;19.78;57.39
15670;BME280;18524;45.190;5.732;2023-04-27T22:00:10;99141.75;;;19.65;59.16
15670;BME280;18524;45.190;5.732;2023-04-27T22:05:04;99138.44;;;19.63;60.03
15670;BME280;18524;45.190;5.732;2023-04-27T22:09:54;99145.13;;;19.59;60.11
15670;BME280;18524;45.190;5.732;2023-04-27T22:14:44;99142.94;;;19.63;60.36
15670;BME280;18524;45.190;5.732;2023-04-27T22:19:36;99147.78;;;19.59;60.01
15670;BME280;18524;45.190;5.732;2023-04-27T22:24:26;99137.88;;;19.53;61.08
15670;BME280;18524;45.190;5.732;2023-04-27T22:29:17;99142.97;;;19.40;62.26
15670;BME280;18524;45.190;5.732;2023-04-27T22:34:10;99149.16;;;19.32;62.76
15670;BME280;18524;45.190;5.732;2023-04-27T22:39:00;99146.88;;;19.29;63.74
15670;BME280;18524;45.190;5.732;2023-04-27T22:43:51;99145.03;;;19.30;63.64
15670;BME280;18524;45.190;5.732;2023-04-27T22:48:41;99150.91;;;19.25;64.20
15670;BME280;18524;45.190;5.732;2023-04-27T22:53:32;99141.69;;;19.13;65.16
15670;BME280;18524;45.190;5.732;2023-04-27T22:58:23;99135.44;;;19.06;65.27
15670;BME280;18524;45.190;5.732;2023-04-27T23:03:13;99136.72;;;18.87;66.54
15670;BME280;18524;45.190;5.732;2023-04-27T23:08:03;99136.72;;;18.87;67.07
15670;BME280;18524;45.190;5.732;2023-04-27T23:12:54;99139.78;;;18.76;67.37
15670;BME280;18524;45.190;5.732;2023-04-27T23:17:46;99148.13;;;18.73;67.54
15670;BME280;18524;45.190;5.732;2023-04-27T23:22:36;99154.13;;;18.67;67.77
15670;BME280;18524;45.190;5.732;2023-04-27T23:27:32;99161.13;;;18.60;67.59
15670;BME280;18524;45.190;5.732;2023-04-27T23:32:23;99167.94;;;18.54;67.92
15670;BME280;18524;45.190;5.732;2023-04-27T23:37:13;99174.78;;;18.49;67.87
15670;BME280;18524;45.190;5.732;2023-04-27T23:42:03;99182.25;;;18.45;68.14
15670;BME280;18524;45.190;5.732;2023-04-27T23:46:54;99183.88;;;18.54;68.91
15670;BME280;18524;45.190;5.732;2023-04-27T23:51:44;99180.03;;;18.57;68.74
15670;BME280;18524;45.190;5.732;2023-04-27T23:56:35;99170.75;;;18.61;67.94
